Terminal Aerodrome Forecast
Issued by NWS Atlanta, GA

Home | Current Version | Previous Version | Text Only | Print | Product List | Glossary On
Versions: 1 2 3 4 5 6 7 8 9 10 11 12 13 14 15 16 17 18
000
FTUS42 KFFC 201100
TAFMCN
TAF
KMCN 201125Z 2012/2112 27003KT 6SM BR FEW010
     FM201500 28006KT P6SM SCT025
     FM201800 29008KT P6SM VCSH SCT045
      TEMPO 2020/2024 VRB15G25KT 5SM -TSRA BKN030CB
     FM210200 28003KT P6SM FEW050=

USA.gov is the U.S. government's official web portal to all federal, state and local government web resources and services.